sensor_id;sensor_type;location;lat;lon;timestamp;P1;P2;P0
24012;PMS7003;12220;50.194;18.948;2023-07-24T00:01:41;4;4;3
24012;PMS7003;12220;50.194;18.948;2023-07-24T00:03:43;5;5;4
24012;PMS7003;12220;50.194;18.948;2023-07-24T00:05:45;6;4;3
24012;PMS7003;12220;50.194;18.948;2023-07-24T00:07:55;4;4;4
24012;PMS7003;12220;50.194;18.948;2023-07-24T00:09:56;5;5;4
24012;PMS7003;12220;50.194;18.948;2023-07-24T00:11:58;3;2;2
24012;PMS7003;12220;50.194;18.948;2023-07-24T00:13:59;3;3;2
24012;PMS7003;12220;50.194;18.948;2023-07-24T00:16:10;2;2;1
24012;PMS7003;12220;50.194;18.948;2023-07-24T00:18:11;7;6;5
24012;PMS7003;12220;50.194;18.948;2023-07-24T00:20:13;5;5;4
24012;PMS7003;12220;50.194;18.948;2023-07-24T00:22:14;5;5;4
24012;PMS7003;12220;50.194;18.948;2023-07-24T00:24:24;5;5;5
24012;PMS7003;12220;50.194;18.948;2023-07-24T00:26:26;3;3;3
24012;PMS7003;12220;50.194;18.948;2023-07-24T00:28:27;6;6;4
24012;PMS7003;12220;50.194;18.948;2023-07-24T00:30:28;3;3;3
24012;PMS7003;12220;50.194;18.948;2023-07-24T00:32:39;5;4;4
24012;PMS7003;12220;50.194;18.948;2023-07-24T00:34:41;4;4;3
24012;PMS7003;12220;50.194;18.948;2023-07-24T00:36:42;5;4;4
24012;PMS7003;12220;50.194;18.948;2023-07-24T00:38:43;3;3;3
24012;PMS7003;12220;50.194;18.948;2023-07-24T00:40:54;4;4;4
24012;PMS7003;12220;50.194;18.948;2023-07-24T00:42:58;7;7;5
24012;PMS7003;12220;50.194;18.948;2023-07-24T00:45:00;5;5;4
24012;PMS7003;12220;50.194;18.948;2023-07-24T00:47:01;5;5;4
24012;PMS7003;12220;50.194;18.948;2023-07-24T00:49:09;3;3;2
24012;PMS7003;12220;50.194;18.948;2023-07-24T00:51:10;5;4;3
24012;PMS7003;12220;50.194;18.948;2023-07-24T00:53:12;6;6;4
24012;PMS7003;12220;50.194;18.948;2023-07-24T00:55:14;5;4;3
24012;PMS7003;12220;50.194;18.948;2023-07-24T00:57:24;5;5;4
24012;PMS7003;12220;50.194;18.948;2023-07-24T00:59:25;6;4;3
24012;PMS7003;12220;50.194;18.948;2023-07-24T01:01:27;6;5;5
24012;PMS7003;12220;50.194;18.948;2023-07-24T01:03:33;4;4;3
24012;PMS7003;12220;50.194;18.948;2023-07-24T01:05:38;5;5;4
24012;PMS7003;12220;50.194;18.948;2023-07-24T01:07:41;7;6;6
24012;PMS7003;12220;50.194;18.948;2023-07-24T01:09:43;5;4;4
24012;PMS7003;12220;50.194;18.948;2023-07-24T01:11:52;3;3;3
24012;PMS7003;12220;50.194;18.948;2023-07-24T01:14:05;3;3;3
24012;PMS7003;12220;50.194;18.948;2023-07-24T01:16:18;4;4;3
24012;PMS7003;12220;50.194;18.948;2023-07-24T01:18:22;2;2;2
24012;PMS7003;12220;50.194;18.948;2023-07-24T01:20:26;4;3;2
24012;PMS7003;12220;50.194;18.948;2023-07-24T01:22:34;4;4;3
24012;PMS7003;12220;50.194;18.948;2023-07-24T01:26:53;3;3;3
24012;PMS7003;12220;50.194;18.948;2023-07-24T01:28:55;1;1;1
24012;PMS7003;12220;50.194;18.948;2023-07-24T01:30:58;3;3;2
24012;PMS7003;12220;50.194;18.948;2023-07-24T01:32:59;4;4;3
24012;PMS7003;12220;50.194;18.948;2023-07-24T01:35:06;5;4;3
24012;PMS7003;12220;50.194;18.948;2023-07-24T01:37:08;6;6;5
24012;PMS7003;12220;50.194;18.948;2023-07-24T01:39:12;4;4;2
24012;PMS7003;12220;50.194;18.948;2023-07-24T01:41:15;5;4;3
24012;PMS7003;12220;50.194;18.948;2023-07-24T01:43:21;5;5;4
24012;PMS7003;12220;50.194;18.948;2023-07-24T01:45:23;5;5;3
24012;PMS7003;12220;50.194;18.948;2023-07-24T01:47:25;3;3;2
24012;PMS7003;12220;50.194;18.948;2023-07-24T01:49:26;4;4;4
24012;PMS7003;12220;50.194;18.948;2023-07-24T01:51:36;3;3;2
24012;PMS7003;12220;50.194;18.948;2023-07-24T01:53:37;4;4;3
24012;PMS7003;12220;50.194;18.948;2023-07-24T01:55:39;4;4;3
24012;PMS7003;12220;50.194;18.948;2023-07-24T01:57:40;3;3;2
24012;PMS7003;12220;50.194;18.948;2023-07-24T01:59:51;3;3;3
24012;PMS7003;12220;50.194;18.948;2023-07-24T02:01:52;6;6;4
24012;PMS7003;12220;50.194;18.948;2023-07-24T02:03:53;6;6;4
24012;PMS7003;12220;50.194;18.948;2023-07-24T02:05:55;4;4;3
24012;PMS7003;12220;50.194;18.948;2023-07-24T02:08:05;5;5;5
24012;PMS7003;12220;50.194;18.948;2023-07-24T02:10:07;4;4;3
24012;PMS7003;12220;50.194;18.948;2023-07-24T02:12:09;6;5;4
24012;PMS7003;12220;50.194;18.948;2023-07-24T02:14:11;5;5;5
24012;PMS7003;12220;50.194;18.948;2023-07-24T02:16:20;7;7;5
24012;PMS7003;12220;50.194;18.948;2023-07-24T02:18:22;11;7;5
24012;PMS7003;12220;50.194;18.948;2023-07-24T02:20:23;6;6;5
24012;PMS7003;12220;50.194;18.948;2023-07-24T02:22:24;6;6;4
24012;PMS7003;12220;50.194;18.948;2023-07-24T02:24:35;4;4;4
24012;PMS7003;12220;50.194;18.948;2023-07-24T02:26:36;3;3;3
24012;PMS7003;12220;50.194;18.948;2023-07-24T02:28:38;5;5;4
24012;PMS7003;12220;50.194;18.948;2023-07-24T02:30:39;7;7;6
24012;PMS7003;12220;50.194;18.948;2023-07-24T02:32:50;5;5;4
24012;PMS7003;12220;50.194;18.948;2023-07-24T02:34:52;6;6;5
24012;PMS7003;12220;50.194;18.948;2023-07-24T02:36:56;6;6;5
24012;PMS7003;12220;50.194;18.948;2023-07-24T02:38:58;9;7;6
24012;PMS7003;12220;50.194;18.948;2023-07-24T02:41:05;5;5;4
24012;PMS7003;12220;50.194;18.948;2023-07-24T02:43:06;9;6;5
24012;PMS7003;12220;50.194;18.948;2023-07-24T02:45:07;5;4;4
24012;PMS7003;12220;50.194;18.948;2023-07-24T02:47:11;6;6;5
24012;PMS7003;12220;50.194;18.948;2023-07-24T02:49:19;5;5;5
24012;PMS7003;12220;50.194;18.948;2023-07-24T02:51:21;5;5;4
24012;PMS7003;12220;50.194;18.948;2023-07-24T02:53:22;3;3;2
24012;PMS7003;12220;50.194;18.948;2023-07-24T02:55:24;6;6;5
24012;PMS7003;12220;50.194;18.948;2023-07-24T02:57:34;5;5;4
24012;PMS7003;12220;50.194;18.948;2023-07-24T02:59:36;5;5;5
24012;PMS7003;12220;50.194;18.948;2023-07-24T03:01:38;5;5;4
24012;PMS7003;12220;50.194;18.948;2023-07-24T03:03:40;5;5;4
24012;PMS7003;12220;50.194;18.948;2023-07-24T03:05:49;7;7;5
24012;PMS7003;12220;50.194;18.948;2023-07-24T03:07:50;9;8;7
24012;PMS7003;12220;50.194;18.948;2023-07-24T03:09:52;6;6;5
24012;PMS7003;12220;50.194;18.948;2023-07-24T03:11:53;5;5;4
24012;PMS7003;12220;50.194;18.948;2023-07-24T03:14:04;6;6;5
24012;PMS7003;12220;50.194;18.948;2023-07-24T03:16:05;4;3;2
24012;PMS7003;12220;50.194;18.948;2023-07-24T03:18:07;8;8;6
24012;PMS7003;12220;50.194;18.948;2023-07-24T03:20:09;5;5;5
24012;PMS7003;12220;50.194;18.948;2023-07-24T03:22:19;7;7;5
24012;PMS7003;12220;50.194;18.948;2023-07-24T03:24:20;9;7;5
24012;PMS7003;12220;50.194;18.948;2023-07-24T03:26:22;6;6;4
24012;PMS7003;12220;50.194;18.948;2023-07-24T03:28:23;8;5;3
24012;PMS7003;12220;50.194;18.948;2023-07-24T03:30:33;10;10;7
24012;PMS7003;12220;50.194;18.948;2023-07-24T03:32:36;6;6;5
24012;PMS7003;12220;50.194;18.948;2023-07-24T03:34:38;10;10;7
24012;PMS7003;12220;50.194;18.948;2023-07-24T03:36:39;7;7;5
24012;PMS7003;12220;50.194;18.948;2023-07-24T03:38:48;7;7;5
24012;PMS7003;12220;50.194;18.948;2023-07-24T03:40:50;7;7;6
24012;PMS7003;12220;50.194;18.948;2023-07-24T03:42:51;7;7;5
24012;PMS7003;12220;50.194;18.948;2023-07-24T03:44:53;7;7;5
24012;PMS7003;12220;50.194;18.948;2023-07-24T03:47:03;7;7;6
24012;PMS7003;12220;50.194;18.948;2023-07-24T03:49:04;9;8;6
24012;PMS7003;12220;50.194;18.948;2023-07-24T03:51:06;10;9;7
24012;PMS7003;12220;50.194;18.948;2023-07-24T03:53:08;6;6;5
24012;PMS7003;12220;50.194;18.948;2023-07-24T03:55:18;9;9;8
24012;PMS7003;12220;50.194;18.948;2023-07-24T03:57:20;11;11;8
24012;PMS7003;12220;50.194;18.948;2023-07-24T03:59:21;10;10;8
24012;PMS7003;12220;50.194;18.948;2023-07-24T04:01:22;9;7;5
24012;PMS7003;12220;50.194;18.948;2023-07-24T04:03:33;13;9;8
24012;PMS7003;12220;50.194;18.948;2023-07-24T04:05:35;6;6;5
24012;PMS7003;12220;50.194;18.948;2023-07-24T04:07:36;8;8;7
24012;PMS7003;12220;50.194;18.948;2023-07-24T04:09:38;14;12;9
24012;PMS7003;12220;50.194;18.948;2023-07-24T04:11:48;13;12;8
24012;PMS7003;12220;50.194;18.948;2023-07-24T04:13:49;10;10;9
24012;PMS7003;12220;50.194;18.948;2023-07-24T04:15:50;11;10;9
24012;PMS7003;12220;50.194;18.948;2023-07-24T04:17:51;9;9;8
24012;PMS7003;12220;50.194;18.948;2023-07-24T04:20:03;8;8;7
24012;PMS7003;12220;50.194;18.948;2023-07-24T04:22:05;9;8;7
24012;PMS7003;12220;50.194;18.948;2023-07-24T04:24:06;13;11;7
24012;PMS7003;12220;50.194;18.948;2023-07-24T04:26:07;16;11;8
24012;PMS7003;12220;50.194;18.948;2023-07-24T04:28:17;9;8;7
24012;PMS7003;12220;50.194;18.948;2023-07-24T04:30:19;10;10;7
24012;PMS7003;12220;50.194;18.948;2023-07-24T04:32:20;9;9;7
24012;PMS7003;12220;50.194;18.948;2023-07-24T04:34:21;7;7;6
24012;PMS7003;12220;50.194;18.948;2023-07-24T04:36:32;9;9;7
24012;PMS7003;12220;50.194;18.948;2023-07-24T04:38:33;11;9;8
24012;PMS7003;12220;50.194;18.948;2023-07-24T04:40:35;7;7;7
24012;PMS7003;12220;50.194;18.948;2023-07-24T04:42:36;9;9;8
24012;PMS7003;12220;50.194;18.948;2023-07-24T04:44:47;11;9;7
24012;PMS7003;12220;50.194;18.948;2023-07-24T04:46:50;11;9;6
24012;PMS7003;12220;50.194;18.948;2023-07-24T04:48:52;11;10;7
24012;PMS7003;12220;50.194;18.948;2023-07-24T04:50:54;10;9;8
24012;PMS7003;12220;50.194;18.948;2023-07-24T04:53:02;8;8;5
24012;PMS7003;12220;50.194;18.948;2023-07-24T04:55:03;9;9;7
24012;PMS7003;12220;50.194;18.948;2023-07-24T04:57:05;10;10;9
24012;PMS7003;12220;50.194;18.948;2023-07-24T04:59:09;9;9;7
24012;PMS7003;12220;50.194;18.948;2023-07-24T05:01:17;12;10;9
24012;PMS7003;12220;50.194;18.948;2023-07-24T05:03:18;5;4;4
24012;PMS7003;12220;50.194;18.948;2023-07-24T05:05:20;10;10;8
24012;PMS7003;12220;50.194;18.948;2023-07-24T05:07:21;19;10;9
24012;PMS7003;12220;50.194;18.948;2023-07-24T05:09:31;17;12;10
24012;PMS7003;12220;50.194;18.948;2023-07-24T05:11:33;12;11;9
24012;PMS7003;12220;50.194;18.948;2023-07-24T05:13:34;10;10;8
24012;PMS7003;12220;50.194;18.948;2023-07-24T05:15:35;11;9;8
24012;PMS7003;12220;50.194;18.948;2023-07-24T05:17:46;13;13;9
24012;PMS7003;12220;50.194;18.948;2023-07-24T05:19:47;10;10;8
24012;PMS7003;12220;50.194;18.948;2023-07-24T05:21:49;12;9;7
24012;PMS7003;12220;50.194;18.948;2023-07-24T05:23:50;13;13;11
24012;PMS7003;12220;50.194;18.948;2023-07-24T05:26:02;10;9;6
24012;PMS7003;12220;50.194;18.948;2023-07-24T05:28:04;12;12;10
24012;PMS7003;12220;50.194;18.948;2023-07-24T05:30:05;11;11;10
24012;PMS7003;12220;50.194;18.948;2023-07-24T05:32:07;12;10;9
24012;PMS7003;12220;50.194;18.948;2023-07-24T05:34:16;14;14;12
24012;PMS7003;12220;50.194;18.948;2023-07-24T05:36:17;11;10;8
24012;PMS7003;12220;50.194;18.948;2023-07-24T05:38:18;14;14;10
24012;PMS7003;12220;50.194;18.948;2023-07-24T05:40:20;11;11;9
24012;PMS7003;12220;50.194;18.948;2023-07-24T05:42:30;14;14;10
24012;PMS7003;12220;50.194;18.948;2023-07-24T05:44:32;15;15;12
24012;PMS7003;12220;50.194;18.948;2023-07-24T05:46:36;12;12;9
24012;PMS7003;12220;50.194;18.948;2023-07-24T05:48:37;13;9;8
24012;PMS7003;12220;50.194;18.948;2023-07-24T05:50:45;16;16;13
24012;PMS7003;12220;50.194;18.948;2023-07-24T05:52:48;11;11;10
24012;PMS7003;12220;50.194;18.948;2023-07-24T05:54:49;11;11;9
24012;PMS7003;12220;50.194;18.948;2023-07-24T05:56:51;11;11;9
24012;PMS7003;12220;50.194;18.948;2023-07-24T05:59:00;13;13;10
24012;PMS7003;12220;50.194;18.948;2023-07-24T06:01:02;15;14;10
24012;PMS7003;12220;50.194;18.948;2023-07-24T06:03:04;16;14;10
24012;PMS7003;12220;50.194;18.948;2023-07-24T06:05:05;17;14;9
24012;PMS7003;12220;50.194;18.948;2023-07-24T06:07:15;15;14;11
24012;PMS7003;12220;50.194;18.948;2023-07-24T06:09:16;15;14;12
24012;PMS7003;12220;50.194;18.948;2023-07-24T06:11:17;15;15;13
24012;PMS7003;12220;50.194;18.948;2023-07-24T06:13:19;15;15;11
24012;PMS7003;12220;50.194;18.948;2023-07-24T06:15:30;16;14;12
24012;PMS7003;12220;50.194;18.948;2023-07-24T06:17:32;11;11;9
24012;PMS7003;12220;50.194;18.948;2023-07-24T06:19:34;14;14;11
24012;PMS7003;12220;50.194;18.948;2023-07-24T06:21:35;12;11;9
24012;PMS7003;12220;50.194;18.948;2023-07-24T06:23:45;16;15;11
24012;PMS7003;12220;50.194;18.948;2023-07-24T06:25:46;10;10;8
24012;PMS7003;12220;50.194;18.948;2023-07-24T06:27:47;13;12;11
24012;PMS7003;12220;50.194;18.948;2023-07-24T06:29:49;10;10;9
24012;PMS7003;12220;50.194;18.948;2023-07-24T06:31:59;11;9;8
24012;PMS7003;12220;50.194;18.948;2023-07-24T06:34:01;16;13;10
24012;PMS7003;12220;50.194;18.948;2023-07-24T06:36:02;10;9;8
24012;PMS7003;12220;50.194;18.948;2023-07-24T06:38:04;9;9;8
24012;PMS7003;12220;50.194;18.948;2023-07-24T06:40:14;11;11;8
24012;PMS7003;12220;50.194;18.948;2023-07-24T06:42:16;9;6;4
24012;PMS7003;12220;50.194;18.948;2023-07-24T06:44:17;14;12;10
24012;PMS7003;12220;50.194;18.948;2023-07-24T06:46:18;12;11;9
24012;PMS7003;12220;50.194;18.948;2023-07-24T06:48:29;14;12;9
24012;PMS7003;12220;50.194;18.948;2023-07-24T06:50:33;11;11;9
24012;PMS7003;12220;50.194;18.948;2023-07-24T06:52:34;16;15;10
24012;PMS7003;12220;50.194;18.948;2023-07-24T06:54:36;12;11;9
24012;PMS7003;12220;50.194;18.948;2023-07-24T06:56:44;11;11;10
24012;PMS7003;12220;50.194;18.948;2023-07-24T06:58:45;11;11;8
24012;PMS7003;12220;50.194;18.948;2023-07-24T07:00:46;11;11;9
24012;PMS7003;12220;50.194;18.948;2023-07-24T07:02:48;11;10;9
24012;PMS7003;12220;50.194;18.948;2023-07-24T07:04:59;11;11;9
24012;PMS7003;12220;50.194;18.948;2023-07-24T07:07:00;15;12;9
24012;PMS7003;12220;50.194;18.948;2023-07-24T07:09:01;13;11;10
24012;PMS7003;12220;50.194;18.948;2023-07-24T07:11:05;11;11;8
24012;PMS7003;12220;50.194;18.948;2023-07-24T07:13:13;12;12;8
24012;PMS7003;12220;50.194;18.948;2023-07-24T07:15:15;13;11;9
24012;PMS7003;12220;50.194;18.948;2023-07-24T07:17:16;13;13;11
24012;PMS7003;12220;50.194;18.948;2023-07-24T07:19:18;9;9;7
24012;PMS7003;12220;50.194;18.948;2023-07-24T07:21:28;11;10;9
24012;PMS7003;12220;50.194;18.948;2023-07-24T07:23:29;9;8;7
24012;PMS7003;12220;50.194;18.948;2023-07-24T07:25:31;10;9;7
24012;PMS7003;12220;50.194;18.948;2023-07-24T07:27:32;10;10;7
24012;PMS7003;12220;50.194;18.948;2023-07-24T07:29:43;11;11;9
24012;PMS7003;12220;50.194;18.948;2023-07-24T07:31:45;9;9;7
24012;PMS7003;12220;50.194;18.948;2023-07-24T07:33:46;8;8;7
24012;PMS7003;12220;50.194;18.948;2023-07-24T07:35:50;9;8;6
24012;PMS7003;12220;50.194;18.948;2023-07-24T07:37:58;8;8;7
24012;PMS7003;12220;50.194;18.948;2023-07-24T07:40:00;11;11;7
24012;PMS7003;12220;50.194;18.948;2023-07-24T07:42:02;11;9;9
24012;PMS7003;12220;50.194;18.948;2023-07-24T07:44:03;9;7;6
24012;PMS7003;12220;50.194;18.948;2023-07-24T07:46:12;17;10;8
24012;PMS7003;12220;50.194;18.948;2023-07-24T07:48:14;10;8;7
24012;PMS7003;12220;50.194;18.948;2023-07-24T07:50:16;9;9;6
24012;PMS7003;12220;50.194;18.948;2023-07-24T07:52:17;9;9;9
24012;PMS7003;12220;50.194;18.948;2023-07-24T07:54:27;7;7;7
24012;PMS7003;12220;50.194;18.948;2023-07-24T07:56:29;9;9;8
24012;PMS7003;12220;50.194;18.948;2023-07-24T07:58:30;10;8;8
24012;PMS7003;12220;50.194;18.948;2023-07-24T08:00:31;8;8;7
24012;PMS7003;12220;50.194;18.948;2023-07-24T08:02:42;7;6;5
24012;PMS7003;12220;50.194;18.948;2023-07-24T08:04:43;15;9;7
24012;PMS7003;12220;50.194;18.948;2023-07-24T08:06:48;5;5;5
24012;PMS7003;12220;50.194;18.948;2023-07-24T08:08:49;13;12;9
24012;PMS7003;12220;50.194;18.948;2023-07-24T08:10:57;8;6;4
24012;PMS7003;12220;50.194;18.948;2023-07-24T08:12:58;7;7;6
24012;PMS7003;12220;50.194;18.948;2023-07-24T08:15:00;5;5;4
24012;PMS7003;12220;50.194;18.948;2023-07-24T08:17:01;8;8;7
24012;PMS7003;12220;50.194;18.948;2023-07-24T08:19:12;9;9;5
24012;PMS7003;12220;50.194;18.948;2023-07-24T08:21:13;9;8;6
24012;PMS7003;12220;50.194;18.948;2023-07-24T08:23:15;16;9;7
24012;PMS7003;12220;50.194;18.948;2023-07-24T08:25:17;8;7;6
24012;PMS7003;12220;50.194;18.948;2023-07-24T08:27:26;10;7;5
24012;PMS7003;12220;50.194;18.948;2023-07-24T08:29:28;5;5;4
24012;PMS7003;12220;50.194;18.948;2023-07-24T08:31:33;6;6;5
24012;PMS7003;12220;50.194;18.948;2023-07-24T08:33:35;5;5;4
24012;PMS7003;12220;50.194;18.948;2023-07-24T08:35:41;8;7;5
24012;PMS7003;12220;50.194;18.948;2023-07-24T08:37:43;8;7;6
24012;PMS7003;12220;50.194;18.948;2023-07-24T08:39:47;8;5;4
24012;PMS7003;12220;50.194;18.948;2023-07-24T08:41:48;9;9;6
24012;PMS7003;12220;50.194;18.948;2023-07-24T08:43:58;7;7;5
24012;PMS7003;12220;50.194;18.948;2023-07-24T08:46:03;7;5;4
24012;PMS7003;12220;50.194;18.948;2023-07-24T08:48:05;9;9;6
24012;PMS7003;12220;50.194;18.948;2023-07-24T08:50:07;7;7;5
24012;PMS7003;12220;50.194;18.948;2023-07-24T08:52:12;8;6;4
24012;PMS7003;12220;50.194;18.948;2023-07-24T08:54:14;8;8;6
24012;PMS7003;12220;50.194;18.948;2023-07-24T08:56:17;7;7;6
24012;PMS7003;12220;50.194;18.948;2023-07-24T08:58:18;8;7;6
24012;PMS7003;12220;50.194;18.948;2023-07-24T09:00:25;14;11;7
24012;PMS7003;12220;50.194;18.948;2023-07-24T09:02:28;5;5;4
24012;PMS7003;12220;50.194;18.948;2023-07-24T09:04:30;10;8;5
24012;PMS7003;12220;50.194;18.948;2023-07-24T09:06:31;6;6;4
24012;PMS7003;12220;50.194;18.948;2023-07-24T09:08:41;6;6;4
24012;PMS7003;12220;50.194;18.948;2023-07-24T09:10:43;11;8;5
24012;PMS7003;12220;50.194;18.948;2023-07-24T09:12:44;11;9;7
24012;PMS7003;12220;50.194;18.948;2023-07-24T09:14:46;8;8;6
24012;PMS7003;12220;50.194;18.948;2023-07-24T09:19:17;9;8;8
24012;PMS7003;12220;50.194;18.948;2023-07-24T09:23:33;9;8;5
24012;PMS7003;12220;50.194;18.948;2023-07-24T09:25:34;9;9;6
24012;PMS7003;12220;50.194;18.948;2023-07-24T09:27:37;7;7;5
24012;PMS7003;12220;50.194;18.948;2023-07-24T09:29:38;8;8;4
24012;PMS7003;12220;50.194;18.948;2023-07-24T09:31:40;7;7;6
24012;PMS7003;12220;50.194;18.948;2023-07-24T09:33:41;8;7;5
24012;PMS7003;12220;50.194;18.948;2023-07-24T09:40:09;8;7;6
24012;PMS7003;12220;50.194;18.948;2023-07-24T09:42:11;8;8;6
24012;PMS7003;12220;50.194;18.948;2023-07-24T09:44:14;12;7;5
24012;PMS7003;12220;50.194;18.948;2023-07-24T09:46:15;8;7;5
24012;PMS7003;12220;50.194;18.948;2023-07-24T09:48:17;9;9;6
24012;PMS7003;12220;50.194;18.948;2023-07-24T09:50:19;10;10;7
24012;PMS7003;12220;50.194;18.948;2023-07-24T09:52:29;9;8;6
24012;PMS7003;12220;50.194;18.948;2023-07-24T09:54:32;10;9;6
24012;PMS7003;12220;50.194;18.948;2023-07-24T09:56:46;9;9;6
24012;PMS7003;12220;50.194;18.948;2023-07-24T09:58:50;7;6;5
24012;PMS7003;12220;50.194;18.948;2023-07-24T10:00:56;9;8;7
24012;PMS7003;12220;50.194;18.948;2023-07-24T10:02:59;9;9;7
24012;PMS7003;12220;50.194;18.948;2023-07-24T10:05:01;6;6;3
24012;PMS7003;12220;50.194;18.948;2023-07-24T10:07:04;4;4;2
24012;PMS7003;12220;50.194;18.948;2023-07-24T10:09:08;11;7;6
24012;PMS7003;12220;50.194;18.948;2023-07-24T10:11:12;12;9;6
24012;PMS7003;12220;50.194;18.948;2023-07-24T10:13:14;7;7;6
24012;PMS7003;12220;50.194;18.948;2023-07-24T10:15:16;6;6;5
24012;PMS7003;12220;50.194;18.948;2023-07-24T10:19:44;8;8;6
24012;PMS7003;12220;50.194;18.948;2023-07-24T10:21:46;10;10;9
24012;PMS7003;12220;50.194;18.948;2023-07-24T10:23:48;9;8;7
24012;PMS7003;12220;50.194;18.948;2023-07-24T10:25:50;7;7;6
24012;PMS7003;12220;50.194;18.948;2023-07-24T10:30:27;9;7;5
24012;PMS7003;12220;50.194;18.948;2023-07-24T10:32:30;8;8;6
24012;PMS7003;12220;50.194;18.948;2023-07-24T10:34:36;6;5;3
24012;PMS7003;12220;50.194;18.948;2023-07-24T10:36:38;9;9;6
24012;PMS7003;12220;50.194;18.948;2023-07-24T10:38:41;8;8;5
24012;PMS7003;12220;50.194;18.948;2023-07-24T10:40:47;8;8;6
24012;PMS7003;12220;50.194;18.948;2023-07-24T10:45:07;6;6;6
24012;PMS7003;12220;50.194;18.948;2023-07-24T10:47:10;8;7;7
24012;PMS7003;12220;50.194;18.948;2023-07-24T10:49:21;7;7;6
24012;PMS7003;12220;50.194;18.948;2023-07-24T10:51:22;5;5;4
24012;PMS7003;12220;50.194;18.948;2023-07-24T10:53:24;11;7;5
24012;PMS7003;12220;50.194;18.948;2023-07-24T10:55:29;6;6;5
24012;PMS7003;12220;50.194;18.948;2023-07-24T10:57:34;8;8;7
24012;PMS7003;12220;50.194;18.948;2023-07-24T10:59:36;6;6;5
24012;PMS7003;12220;50.194;18.948;2023-07-24T11:01:40;5;5;4
24012;PMS7003;12220;50.194;18.948;2023-07-24T11:03:43;8;8;6
24012;PMS7003;12220;50.194;18.948;2023-07-24T11:05:49;8;8;6
24012;PMS7003;12220;50.194;18.948;2023-07-24T11:07:53;6;6;3
24012;PMS7003;12220;50.194;18.948;2023-07-24T11:09:55;8;8;5
24012;PMS7003;12220;50.194;18.948;2023-07-24T11:11:57;7;5;3
24012;PMS7003;12220;50.194;18.948;2023-07-24T11:14:04;9;8;5
24012;PMS7003;12220;50.194;18.948;2023-07-24T11:16:06;6;6;4
24012;PMS7003;12220;50.194;18.948;2023-07-24T11:18:08;9;6;5
24012;PMS7003;12220;50.194;18.948;2023-07-24T11:20:15;6;6;4
24012;PMS7003;12220;50.194;18.948;2023-07-24T11:22:21;6;6;5
24012;PMS7003;12220;50.194;18.948;2023-07-24T11:24:23;6;5;4
24012;PMS7003;12220;50.194;18.948;2023-07-24T11:26:25;7;7;5
24012;PMS7003;12220;50.194;18.948;2023-07-24T11:28:28;10;7;4
24012;PMS7003;12220;50.194;18.948;2023-07-24T11:30:33;7;6;5
24012;PMS7003;12220;50.194;18.948;2023-07-24T11:32:37;4;4;3
24012;PMS7003;12220;50.194;18.948;2023-07-24T11:34:39;6;6;4
24012;PMS7003;12220;50.194;18.948;2023-07-24T11:36:41;9;5;4
24012;PMS7003;12220;50.194;18.948;2023-07-24T11:38:48;8;7;5
24012;PMS7003;12220;50.194;18.948;2023-07-24T11:40:49;8;8;6
24012;PMS7003;12220;50.194;18.948;2023-07-24T11:42:51;10;9;6
24012;PMS7003;12220;50.194;18.948;2023-07-24T11:44:52;6;6;6
24012;PMS7003;12220;50.194;18.948;2023-07-24T11:47:03;6;6;5
24012;PMS7003;12220;50.194;18.948;2023-07-24T11:49:06;7;7;6
24012;PMS7003;12220;50.194;18.948;2023-07-24T11:51:07;8;5;4
24012;PMS7003;12220;50.194;18.948;2023-07-24T11:57:39;9;9;7
24012;PMS7003;12220;50.194;18.948;2023-07-24T11:59:40;15;7;5
24012;PMS7003;12220;50.194;18.948;2023-07-24T12:01:45;6;6;4
24012;PMS7003;12220;50.194;18.948;2023-07-24T12:03:53;6;5;3
24012;PMS7003;12220;50.194;18.948;2023-07-24T12:05:54;6;6;4
24012;PMS7003;12220;50.194;18.948;2023-07-24T12:07:57;10;7;5
24012;PMS7003;12220;50.194;18.948;2023-07-24T12:10:00;7;7;5
24012;PMS7003;12220;50.194;18.948;2023-07-24T12:12:03;10;5;4
24012;PMS7003;12220;50.194;18.948;2023-07-24T12:14:08;9;8;5
24012;PMS7003;12220;50.194;18.948;2023-07-24T12:16:12;4;4;3
24012;PMS7003;12220;50.194;18.948;2023-07-24T12:18:14;9;9;6
24012;PMS7003;12220;50.194;18.948;2023-07-24T12:20:15;8;8;5
24012;PMS7003;12220;50.194;18.948;2023-07-24T12:22:23;9;9;7
24012;PMS7003;12220;50.194;18.948;2023-07-24T12:24:24;8;6;5
24012;PMS7003;12220;50.194;18.948;2023-07-24T12:26:26;8;7;6
24012;PMS7003;12220;50.194;18.948;2023-07-24T12:28:28;6;6;4
24012;PMS7003;12220;50.194;18.948;2023-07-24T12:30:38;6;5;4
24012;PMS7003;12220;50.194;18.948;2023-07-24T12:32:39;5;5;3
24012;PMS7003;12220;50.194;18.948;2023-07-24T12:34:41;8;7;5
24012;PMS7003;12220;50.194;18.948;2023-07-24T12:36:42;8;7;5
24012;PMS7003;12220;50.194;18.948;2023-07-24T12:38:52;7;5;3
24012;PMS7003;12220;50.194;18.948;2023-07-24T12:40:54;10;7;5
24012;PMS7003;12220;50.194;18.948;2023-07-24T12:42:56;8;7;6
24012;PMS7003;12220;50.194;18.948;2023-07-24T12:44:57;9;9;7
24012;PMS7003;12220;50.194;18.948;2023-07-24T12:47:07;9;8;5
24012;PMS7003;12220;50.194;18.948;2023-07-24T12:49:09;9;9;7
24012;PMS7003;12220;50.194;18.948;2023-07-24T12:51:10;10;9;7
24012;PMS7003;12220;50.194;18.948;2023-07-24T12:53:12;6;6;5
24012;PMS7003;12220;50.194;18.948;2023-07-24T12:55:22;5;5;5
24012;PMS7003;12220;50.194;18.948;2023-07-24T12:57:23;9;7;5
24012;PMS7003;12220;50.194;18.948;2023-07-24T12:59:27;10;10;6
24012;PMS7003;12220;50.194;18.948;2023-07-24T13:01:28;8;8;6
24012;PMS7003;12220;50.194;18.948;2023-07-24T13:03:37;9;9;7
24012;PMS7003;12220;50.194;18.948;2023-07-24T13:05:38;10;10;8
24012;PMS7003;12220;50.194;18.948;2023-07-24T13:07:40;9;9;6
24012;PMS7003;12220;50.194;18.948;2023-07-24T13:09:41;7;7;7
24012;PMS7003;12220;50.194;18.948;2023-07-24T13:11:51;10;10;7
24012;PMS7003;12220;50.194;18.948;2023-07-24T13:13:55;7;7;6
24012;PMS7003;12220;50.194;18.948;2023-07-24T13:15:57;7;7;5
24012;PMS7003;12220;50.194;18.948;2023-07-24T13:17:58;10;10;7
24012;PMS7003;12220;50.194;18.948;2023-07-24T13:20:06;12;9;7
24012;PMS7003;12220;50.194;18.948;2023-07-24T13:22:08;8;6;5
24012;PMS7003;12220;50.194;18.948;2023-07-24T13:24:10;9;9;7
24012;PMS7003;12220;50.194;18.948;2023-07-24T13:26:11;12;11;8
24012;PMS7003;12220;50.194;18.948;2023-07-24T13:28:21;11;10;7
24012;PMS7003;12220;50.194;18.948;2023-07-24T13:30:22;8;7;6
24012;PMS7003;12220;50.194;18.948;2023-07-24T13:32:23;12;10;7
24012;PMS7003;12220;50.194;18.948;2023-07-24T13:34:25;7;7;6
24012;PMS7003;12220;50.194;18.948;2023-07-24T13:36:35;10;10;8
24012;PMS7003;12220;50.194;18.948;2023-07-24T13:38:37;11;11;8
24012;PMS7003;12220;50.194;18.948;2023-07-24T13:40:38;13;11;9
24012;PMS7003;12220;50.194;18.948;2023-07-24T13:42:40;7;7;5
24012;PMS7003;12220;50.194;18.948;2023-07-24T13:44:50;9;7;4
24012;PMS7003;12220;50.194;18.948;2023-07-24T13:46:52;8;7;6
24012;PMS7003;12220;50.194;18.948;2023-07-24T13:48:57;7;7;6
24012;PMS7003;12220;50.194;18.948;2023-07-24T13:50:59;7;7;5
24012;PMS7003;12220;50.194;18.948;2023-07-24T13:53:05;9;9;8
24012;PMS7003;12220;50.194;18.948;2023-07-24T13:55:07;12;9;6